createdAt,value
2023-05-09T00:01:29.292Z,101592.36
2023-05-09T00:03:37.464Z,101591.7
2023-05-09T00:05:44.566Z,101585.67
2023-05-09T00:07:51.266Z,101586
2023-05-09T00:09:57.418Z,101580.86
2023-05-09T00:12:03.996Z,101582.88
2023-05-09T00:14:13.538Z,101581.95
2023-05-09T00:16:20.660Z,101580.25
2023-05-09T00:18:27.310Z,101583.41
2023-05-09T00:20:33.923Z,101584.42
2023-05-09T00:22:41.153Z,101585.62
2023-05-09T00:24:47.517Z,101579.24
2023-05-09T00:26:53.689Z,101583.88
2023-05-09T00:29:00.424Z,101581.08
2023-05-09T00:31:06.742Z,101575.55
2023-05-09T00:33:13.860Z,101575.61
2023-05-09T00:35:21.275Z,101571.97
2023-05-09T00:37:27.706Z,101567.95
2023-05-09T00:39:34.169Z,101570.5
2023-05-09T00:41:41.020Z,101572.71
2023-05-09T00:43:47.330Z,101572.56
2023-05-09T00:45:54.239Z,101568.63
2023-05-09T00:48:01.381Z,101569.67
2023-05-09T00:50:26.242Z,101572.47
2023-05-09T00:52:32.542Z,101570.91
2023-05-09T00:54:38.870Z,101568.45
2023-05-09T00:56:47.327Z,101570.14
2023-05-09T00:58:53.869Z,101565.45
2023-05-09T01:01:00.897Z,101566.08
2023-05-09T01:03:07.769Z,101566.95
2023-05-09T01:05:16.130Z,101570.6
2023-05-09T01:07:23.731Z,101566.75
2023-05-09T01:09:30.337Z,101569.23
2023-05-09T01:11:37.140Z,101566.53
2023-05-09T01:13:43.469Z,101572.56
2023-05-09T01:15:50.406Z,101568.95
2023-05-09T01:17:56.765Z,101567.88
2023-05-09T01:20:04.968Z,101570.79
2023-05-09T01:22:11.179Z,101568.8
2023-05-09T01:24:18.289Z,101568.84
2023-05-09T01:26:24.880Z,101566.75
2023-05-09T01:28:31.893Z,101563.08
2023-05-09T01:30:38.102Z,101568.06
2023-05-09T01:32:44.988Z,101561.97
2023-05-09T01:34:51.297Z,101564.45
2023-05-09T01:36:58.667Z,101569.23
2023-05-09T01:39:06.208Z,101569.05
2023-05-09T01:41:12.570Z,101568.88
2023-05-09T01:43:19.545Z,101567.08
2023-05-09T01:45:25.735Z,101570.59
2023-05-09T01:47:32.678Z,101568.56
2023-05-09T01:49:39.637Z,101568.19
2023-05-09T01:51:46.101Z,101567.58
2023-05-09T01:53:53.255Z,101570.8
2023-05-09T01:55:59.589Z,101567.59
2023-05-09T01:58:05.836Z,101568.97
2023-05-09T02:00:13.207Z,101568.41
2023-05-09T02:02:20.297Z,101566.5
2023-05-09T02:04:26.767Z,101565.12
2023-05-09T02:06:33.199Z,101564.55
2023-05-09T02:08:39.935Z,101559.73
2023-05-09T02:10:46.696Z,101558.84
2023-05-09T02:12:53.422Z,101558.42
2023-05-09T02:15:00.901Z,101558.59
2023-05-09T02:17:07.957Z,101555.45
2023-05-09T02:19:14.144Z,101558.78
2023-05-09T02:21:20.234Z,101554.85
2023-05-09T02:23:26.660Z,101554.79
2023-05-09T02:25:33.777Z,101554.84
2023-05-09T02:27:40.159Z,101556.91
2023-05-09T02:29:46.671Z,101553.58
2023-05-09T02:31:52.996Z,101554.12
2023-05-09T02:33:59.348Z,101560.41
2023-05-09T02:36:06.044Z,101555.23
2023-05-09T02:38:12.767Z,101550.16
2023-05-09T02:40:19.349Z,101551.86
2023-05-09T02:42:26.429Z,101555.54
2023-05-09T02:44:33.472Z,101561.38
2023-05-09T02:46:42.007Z,101563.75
2023-05-09T02:48:49.137Z,101563.39
2023-05-09T02:50:55.850Z,101561.25
2023-05-09T02:53:02.424Z,101560.89
2023-05-09T02:55:09.767Z,101562.61
2023-05-09T02:57:16.835Z,101560.83
2023-05-09T02:59:23.485Z,101560.34
2023-05-09T03:01:29.780Z,101559.73
2023-05-09T03:03:36.444Z,101563.76
2023-05-09T03:05:43.708Z,101563.27
2023-05-09T03:07:49.871Z,101565.83
2023-05-09T03:09:56.212Z,101566.94
2023-05-09T03:12:02.886Z,101566.52
2023-05-09T03:14:09.186Z,101567.52
2023-05-09T03:16:15.998Z,101568.91
2023-05-09T03:18:23.014Z,101568.49
2023-05-09T03:20:30.113Z,101569.42
2023-05-09T03:22:36.592Z,101572.06
2023-05-09T03:24:42.979Z,101572.05
2023-05-09T03:26:50.105Z,101570.59
2023-05-09T03:28:59.659Z,101569.72
2023-05-09T03:31:07.055Z,101568.33
2023-05-09T03:33:13.704Z,101572.7
2023-05-09T03:35:19.945Z,101575.7
2023-05-09T03:37:28.665Z,101575.52
2023-05-09T03:39:35.430Z,101578.02
2023-05-09T03:41:42.020Z,101581.02
2023-05-09T03:43:49.298Z,101581.65
2023-05-09T03:45:55.971Z,101579.58
2023-05-09T03:48:03.157Z,101584.22
2023-05-09T03:50:11.266Z,101585.8
2023-05-09T03:52:17.619Z,101587.04
2023-05-09T03:54:41.781Z,101586.81
2023-05-09T03:56:48.389Z,101584.18
2023-05-09T03:58:55.211Z,101583.2
2023-05-09T04:01:01.476Z,101581.27
2023-05-09T04:03:08.103Z,101577.47
2023-05-09T04:05:17.047Z,101579.84
2023-05-09T04:07:23.785Z,101572.93
2023-05-09T04:09:29.907Z,101579.74
2023-05-09T04:11:37.071Z,101572.16
2023-05-09T04:13:45.530Z,101576.25
2023-05-09T04:15:52.715Z,101575.36
2023-05-09T04:18:00.242Z,101573.7
2023-05-09T04:20:07.067Z,101569.77
2023-05-09T04:22:13.868Z,101573
2023-05-09T04:24:20.777Z,101570.5
2023-05-09T04:26:27.294Z,101573.27
2023-05-09T04:28:34.382Z,101578.94
2023-05-09T04:30:41.283Z,101573.31
2023-05-09T04:32:48.034Z,101578.33
2023-05-09T04:34:55.436Z,101580.67
2023-05-09T04:37:02.444Z,101576.15
2023-05-09T04:39:09.282Z,101577.92
2023-05-09T04:41:17.302Z,101580.83
2023-05-09T04:43:23.669Z,101582.56
2023-05-09T04:45:30.774Z,101581.55
2023-05-09T04:47:37.116Z,101577.9
2023-05-09T04:49:44.328Z,101578.08
2023-05-09T04:51:51.353Z,101576.8
2023-05-09T04:53:59.053Z,101573.27
2023-05-09T04:56:06.341Z,101572.27
2023-05-09T04:58:13.457Z,101577.34
2023-05-09T05:00:19.933Z,101574.41
2023-05-09T05:02:26.878Z,101570.88
2023-05-09T05:04:34.173Z,101569.42
2023-05-09T05:06:41.494Z,101574.1
2023-05-09T05:08:49.192Z,101567.55
2023-05-09T05:10:55.800Z,101567.34
2023-05-09T05:13:01.932Z,101562.92
2023-05-09T05:15:08.249Z,101561.13
2023-05-09T05:17:15.485Z,101555.69
2023-05-09T05:19:22.224Z,101551.6
2023-05-09T05:21:28.443Z,101556.12
2023-05-09T05:23:35.514Z,101545.58
2023-05-09T05:25:42.504Z,101536.58
2023-05-09T05:27:48.862Z,101537.55
2023-05-09T05:29:55.270Z,101534.61
2023-05-09T05:32:02.028Z,101539.08
2023-05-09T05:34:09.141Z,101539.12
2023-05-09T05:36:15.325Z,101528.78
2023-05-09T05:38:21.967Z,101526.99
2023-05-09T05:40:28.265Z,101520.88
2023-05-09T05:42:34.735Z,101525.97
2023-05-09T05:44:41.931Z,101523.67
2023-05-09T05:46:49.426Z,101519.91
2023-05-09T05:48:56.613Z,101523.91
2023-05-09T05:51:02.708Z,101523.41
2023-05-09T05:53:09.254Z,101523.39
2023-05-09T05:55:16.302Z,101524.47
2023-05-09T05:57:22.842Z,101523.05
2023-05-09T05:59:29.362Z,101520.84
2023-05-09T06:01:35.575Z,101518.59
2023-05-09T06:03:42.448Z,101518.19
2023-05-09T06:05:48.910Z,101521.32
2023-05-09T06:07:55.072Z,101518.3
2023-05-09T06:10:01.538Z,101517.8
2023-05-09T06:12:09.049Z,101515.54
2023-05-09T06:14:16.971Z,101515.61
2023-05-09T06:16:23.957Z,101513.55
2023-05-09T06:18:30.600Z,101510.43
2023-05-09T06:20:37.539Z,101507.06
2023-05-09T06:22:45.834Z,101513.59
2023-05-09T06:24:52.773Z,101518.28
2023-05-09T06:26:59.707Z,101516.97
2023-05-09T06:29:05.909Z,101516.63
2023-05-09T06:31:12.075Z,101516.75
2023-05-09T06:33:19.261Z,101514.03
2023-05-09T06:35:26.408Z,101511.88
2023-05-09T06:37:33.328Z,101510.29
2023-05-09T06:39:42.670Z,101505.4
2023-05-09T06:41:49.677Z,101515.41
2023-05-09T06:43:56.230Z,101511.23
2023-05-09T06:46:02.646Z,101506.92
2023-05-09T06:48:10.178Z,101508.89
2023-05-09T06:50:19.771Z,101501.82
2023-05-09T06:52:27.322Z,101502.5
2023-05-09T06:54:34.099Z,101507.28
2023-05-09T06:56:40.508Z,101505.29
2023-05-09T06:58:47.090Z,101506.77
2023-05-09T07:00:53.758Z,101497.17
2023-05-09T07:03:00.635Z,101494.03
2023-05-09T07:05:07.607Z,101501.17
2023-05-09T07:07:14.593Z,101496.72
2023-05-09T07:09:21.096Z,101496.91
2023-05-09T07:11:28.789Z,101497.59
2023-05-09T07:13:35.646Z,101492.43
2023-05-09T07:15:44.612Z,101493.91
2023-05-09T07:17:52.177Z,101488.88
2023-05-09T07:19:58.606Z,101491.66
2023-05-09T07:22:05.081Z,101489.47
2023-05-09T07:24:11.676Z,101495.13
2023-05-09T07:26:19.124Z,101487.4
2023-05-09T07:28:27.591Z,101485.83
2023-05-09T07:30:36.351Z,101481.08
2023-05-09T07:32:43.923Z,101485.96
2023-05-09T07:34:50.404Z,101483.83
2023-05-09T07:36:57.470Z,101474.8
2023-05-09T07:39:05.356Z,101477.85
2023-05-09T07:41:11.689Z,101471.6
2023-05-09T07:43:18.309Z,101473.3
2023-05-09T07:45:26.312Z,101467.59
2023-05-09T07:47:44.989Z,101461.09
2023-05-09T07:50:02.969Z,101463.34
2023-05-09T07:52:11.209Z,101465.88
2023-05-09T07:54:18.493Z,101465.14
2023-05-09T07:56:32.592Z,101464.07
2023-05-09T07:58:48.845Z,101461.47
2023-05-09T08:00:59.176Z,101460.85
2023-05-09T08:03:09.223Z,101455.16
2023-05-09T08:05:25.006Z,101448.8
2023-05-09T08:07:32.142Z,101444.94
2023-05-09T08:09:40.518Z,101451.43
2023-05-09T08:11:50.754Z,101436.47
2023-05-09T08:14:00.632Z,101447.75
2023-05-09T08:16:11.275Z,101439.47
2023-05-09T08:18:17.497Z,101443.87
2023-05-09T08:20:24.205Z,101430.02
2023-05-09T08:22:35.332Z,101428.34
2023-05-09T08:24:58.115Z,101428.36
2023-05-09T08:27:05.005Z,101439.7
2023-05-09T08:29:18.033Z,101429.02
2023-05-09T08:31:27.168Z,101432.53
2023-05-09T08:33:37.561Z,101427.84
2023-05-09T08:35:48.029Z,101422
2023-05-09T08:38:05.839Z,101410.47
2023-05-09T08:40:16.155Z,101411.11
2023-05-09T08:42:28.383Z,101410.5
2023-05-09T08:44:35.439Z,101405.44
2023-05-09T08:46:50.994Z,101410.57
2023-05-09T08:48:58.878Z,101401.39
2023-05-09T08:51:06.257Z,101395.86
2023-05-09T08:53:12.254Z,101396.56
2023-05-09T08:55:24.182Z,101397.61
2023-05-09T08:57:33.587Z,101392.53
2023-05-09T08:59:41.167Z,101398.14
2023-05-09T09:01:48.673Z,101386.27
2023-05-09T09:04:01.005Z,101389.42
2023-05-09T09:06:14.504Z,101392.14
2023-05-09T09:08:20.693Z,101388.72
2023-05-09T09:10:27.433Z,101395.98
2023-05-09T09:12:35.854Z,101381.81
2023-05-09T09:14:42.404Z,101381.95
2023-05-09T09:16:51.381Z,101388.5
2023-05-09T09:19:00.546Z,101384.8
2023-05-09T09:21:17.423Z,101381.97
2023-05-09T09:23:23.925Z,101377.08
2023-05-09T09:25:30.391Z,101379.27
2023-05-09T09:27:40.201Z,101378.56
2023-05-09T09:29:50.261Z,101376.53
2023-05-09T09:32:00.357Z,101374.27
2023-05-09T09:34:09.998Z,101369.06
2023-05-09T09:36:19.187Z,101368
2023-05-09T09:38:31.190Z,101374.97
2023-05-09T09:40:37.680Z,101368.27
2023-05-09T09:42:44.267Z,101368.83
2023-05-09T09:44:54.587Z,101375.34
2023-05-09T09:47:01.658Z,101366.34
2023-05-09T09:49:08.201Z,101365.1
2023-05-09T09:51:15.279Z,101368.36
2023-05-09T09:53:21.929Z,101370.45
2023-05-09T09:55:29.881Z,101363.21
2023-05-09T09:57:36.534Z,101363.76
2023-05-09T09:59:43.366Z,101362.72
2023-05-09T10:01:53.276Z,101359.78
2023-05-09T10:04:00.495Z,101361.32
2023-05-09T10:06:12.696Z,101368.52
2023-05-09T10:08:23.829Z,101361.45
2023-05-09T10:10:31.004Z,101360.75
2023-05-09T10:12:38.399Z,101349.47
2023-05-09T10:14:45.594Z,101347.64
2023-05-09T10:16:52.012Z,101348.15
2023-05-09T10:18:59.220Z,101353.98
2023-05-09T10:21:07.859Z,101346.53
2023-05-09T10:23:14.597Z,101337.53
2023-05-09T10:25:21.344Z,101328.46
2023-05-09T10:27:27.991Z,101332.02
2023-05-09T10:29:34.984Z,101339.13
2023-05-09T10:31:42.006Z,101326.8
2023-05-09T10:33:48.735Z,101325.63
2023-05-09T10:35:56.208Z,101326.38
2023-05-09T10:38:03.451Z,101328.52
2023-05-09T10:40:10.226Z,101326.53
2023-05-09T10:42:17.355Z,101329.41
2023-05-09T10:44:24.296Z,101327.64
2023-05-09T10:46:30.737Z,101322.91
2023-05-09T10:48:37.370Z,101316.81
2023-05-09T10:50:44.151Z,101318.89
2023-05-09T10:52:50.711Z,101316.84
2023-05-09T10:54:57.344Z,101307.99
2023-05-09T10:57:03.737Z,101311.2
2023-05-09T10:59:09.913Z,101313.89
2023-05-09T11:01:16.109Z,101313.16
2023-05-09T11:03:22.921Z,101307.71
2023-05-09T11:05:29.640Z,101306.05
2023-05-09T11:07:36.505Z,101298.16
2023-05-09T11:09:42.790Z,101298.78
2023-05-09T11:11:49.380Z,101300.42
2023-05-09T11:13:56.165Z,101297.25
2023-05-09T11:16:02.894Z,101289.83
2023-05-09T11:18:09.973Z,101280.46
2023-05-09T11:20:16.980Z,101278.77
2023-05-09T11:22:23.459Z,101285.42
2023-05-09T11:24:31.115Z,101280.94
2023-05-09T11:26:41.630Z,101281.59
2023-05-09T11:28:49.345Z,101283.02
2023-05-09T11:30:57.585Z,101277.5
2023-05-09T11:33:04.068Z,101264.78
2023-05-09T11:35:12.281Z,101255.36
2023-05-09T11:37:20.075Z,101258.52
2023-05-09T11:39:26.412Z,101252.05
2023-05-09T11:41:33.414Z,101247.58
2023-05-09T11:43:39.945Z,101244.27
2023-05-09T11:45:47.766Z,101243.42
2023-05-09T11:47:55.253Z,101243.09
2023-05-09T11:50:03.307Z,101238.05
2023-05-09T11:52:10.749Z,101233.48
2023-05-09T11:54:17.417Z,101227.23
2023-05-09T11:56:24.673Z,101214.95
2023-05-09T11:58:31.488Z,101225.44
2023-05-09T12:00:37.915Z,101224.78
2023-05-09T12:02:45.416Z,101222.41
2023-05-09T12:04:53.165Z,101215.56
2023-05-09T12:06:59.930Z,101216.79
2023-05-09T12:09:06.643Z,101222.42
2023-05-09T12:11:12.864Z,101220.95
2023-05-09T12:13:19.109Z,101215.81
2023-05-09T12:15:26.034Z,101216.52
2023-05-09T12:17:33.063Z,101208.21
2023-05-09T12:19:39.533Z,101210.25
2023-05-09T12:21:46.270Z,101206.53
2023-05-09T12:23:54.887Z,101212.79
2023-05-09T12:26:01.383Z,101201.63
2023-05-09T12:28:08.131Z,101185.11
2023-05-09T12:30:15.739Z,101183.14
2023-05-09T12:32:23.665Z,101187.35
2023-05-09T12:34:30.279Z,101185.45
2023-05-09T12:36:38.343Z,101182.52
2023-05-09T12:38:45.728Z,101177.73
2023-05-09T12:40:52.370Z,101173.53
2023-05-09T12:42:58.923Z,101176.19
2023-05-09T12:45:06.217Z,101172.13
2023-05-09T12:47:13.672Z,101172.84
2023-05-09T12:49:21.949Z,101165.66
2023-05-09T12:51:28.981Z,101163.53
2023-05-09T12:53:37.004Z,101165.11
2023-05-09T12:55:44.452Z,101159.05
2023-05-09T12:57:50.677Z,101157.23
2023-05-09T12:59:57.457Z,101150.2
2023-05-09T13:02:04.519Z,101162.53
2023-05-09T13:04:13.491Z,101143.73
2023-05-09T13:06:20.504Z,101145.3
2023-05-09T13:08:27.676Z,101142.1
2023-05-09T13:10:35.657Z,101144.67
2023-05-09T13:12:43.493Z,101144.55
2023-05-09T13:14:50.983Z,101142.05
2023-05-09T13:16:58.867Z,101138.31
2023-05-09T13:19:06.721Z,101133.98
2023-05-09T13:21:14.332Z,101129.35
2023-05-09T13:23:21.646Z,101127.84
2023-05-09T13:25:28.701Z,101124.02
2023-05-09T13:27:35.192Z,101125.97
2023-05-09T13:29:42.025Z,101132.09
2023-05-09T13:31:49.441Z,101126.49
2023-05-09T13:33:56.678Z,101117.61
2023-05-09T13:36:03.585Z,101106.14
2023-05-09T13:38:11.550Z,101108.45
2023-05-09T13:40:19.690Z,101105.19
2023-05-09T13:42:27.349Z,101107.56
2023-05-09T13:44:35.552Z,101102.11
2023-05-09T13:46:43.598Z,101099.78
2023-05-09T13:48:50.787Z,101100.78
2023-05-09T13:50:57.750Z,101093.81
2023-05-09T13:53:04.196Z,101101.16
2023-05-09T13:55:11.634Z,101097.47
2023-05-09T13:57:19.394Z,101090.73
2023-05-09T13:59:26.760Z,101085.5
2023-05-09T14:01:34.021Z,101096.19
2023-05-09T14:03:41.657Z,101089.5
2023-05-09T14:05:48.528Z,101078
2023-05-09T14:07:54.938Z,101079.16
2023-05-09T14:10:13.176Z,101073.85
2023-05-09T14:12:20.270Z,101069.87
2023-05-09T14:14:27.684Z,101069.72
2023-05-09T14:16:35.460Z,101068.06
2023-05-09T14:18:42.411Z,101071.14
2023-05-09T14:20:49.796Z,101071.13
2023-05-09T14:22:56.377Z,101065.8
2023-05-09T14:25:02.922Z,101062.03
2023-05-09T14:27:10.753Z,101064.73
2023-05-09T14:29:18.709Z,101063.08
2023-05-09T14:31:26.606Z,101064.53
2023-05-09T14:33:34.629Z,101063.3
2023-05-09T14:35:43.621Z,101065.38
2023-05-09T14:37:50.404Z,101061.3
2023-05-09T14:39:58.962Z,101054.67
2023-05-09T14:42:06.693Z,101050.36
2023-05-09T14:44:17.001Z,101055.26
2023-05-09T14:46:23.899Z,101057.83
2023-05-09T14:48:30.934Z,101057.02
2023-05-09T14:50:37.255Z,101053.47
2023-05-09T14:52:44.556Z,101049.91
2023-05-09T14:54:52.055Z,101048.24
2023-05-09T14:57:00.045Z,101049.66
2023-05-09T14:59:08.344Z,101048.3
2023-05-09T15:01:15.928Z,101047.94
2023-05-09T15:03:24.234Z,101038.72
2023-05-09T15:05:30.835Z,101043.92
2023-05-09T15:07:37.862Z,101039.72
2023-05-09T15:09:45.970Z,101032.02
2023-05-09T15:11:54.184Z,101030.35
2023-05-09T15:14:02.536Z,101029.86
2023-05-09T15:16:10.480Z,101029.4
2023-05-09T15:18:18.264Z,101018.83
2023-05-09T15:20:25.894Z,101015.76
2023-05-09T15:22:33.431Z,101016.06
2023-05-09T15:24:40.949Z,101016.06
2023-05-09T15:26:48.189Z,101017.55
2023-05-09T15:28:55.336Z,101017.69
2023-05-09T15:31:02.014Z,101016.63
2023-05-09T15:33:11.023Z,101017.02
2023-05-09T15:35:18.651Z,101016.36
2023-05-09T15:37:26.670Z,101010.61
2023-05-09T15:39:36.838Z,101009.99
2023-05-09T15:41:44.018Z,101012.17
2023-05-09T15:43:53.238Z,101004.58
2023-05-09T15:46:00.763Z,101006.45
2023-05-09T15:48:09.189Z,101005.19
2023-05-09T15:50:17.259Z,100999.83
2023-05-09T15:52:25.261Z,101002.8
2023-05-09T15:54:32.575Z,101002.16
2023-05-09T15:56:39.970Z,100998.46
2023-05-09T15:58:47.532Z,100987.75
2023-05-09T16:00:55.359Z,100986.04
2023-05-09T16:03:02.891Z,100981.89
2023-05-09T16:05:12.835Z,100982.82
2023-05-09T16:07:22.633Z,100982.69
2023-05-09T16:09:29.493Z,100978.59
2023-05-09T16:11:40.261Z,100977.44
2023-05-09T16:13:47.883Z,100970.33
2023-05-09T16:15:55.859Z,100976.17
2023-05-09T16:18:03.668Z,100973.18
2023-05-09T16:20:12.138Z,100971.06
2023-05-09T16:22:20.628Z,100968.14
2023-05-09T16:24:28.318Z,100968.23
2023-05-09T16:26:36.827Z,100966.4
2023-05-09T16:28:44.995Z,100960.05
2023-05-09T16:30:53.027Z,100962.12
2023-05-09T16:33:00.630Z,100953.95
2023-05-09T16:35:09.090Z,100959.52
2023-05-09T16:37:16.327Z,100947.84
2023-05-09T16:39:24.009Z,100950.42
2023-05-09T16:41:31.071Z,100952.53
2023-05-09T16:43:38.602Z,100945.68
2023-05-09T16:45:46.402Z,100939.88
2023-05-09T16:47:54.046Z,100945.14
2023-05-09T16:50:03.261Z,100942.02
2023-05-09T16:52:11.919Z,100942.23
2023-05-09T16:54:19.662Z,100944.13
2023-05-09T16:56:27.454Z,100944.52
2023-05-09T16:58:38.948Z,100939.26
2023-05-09T17:00:45.830Z,100944.15
2023-05-09T17:02:52.808Z,100940.25
2023-05-09T17:05:01.344Z,100940.42
2023-05-09T17:07:10.881Z,100941.03
2023-05-09T17:09:18.617Z,100938.51
2023-05-09T17:11:26.496Z,100936.44
2023-05-09T17:13:34.597Z,100932.84
2023-05-09T17:15:42.066Z,100929.44
2023-05-09T17:17:50.416Z,100930.63
2023-05-09T17:20:05.173Z,100928.93
2023-05-09T17:22:13.343Z,100930.17
2023-05-09T17:24:20.959Z,100925.39
2023-05-09T17:26:29.291Z,100928.69
2023-05-09T17:28:37.267Z,100927.81
2023-05-09T17:30:44.890Z,100929.92
2023-05-09T17:32:52.402Z,100930.06
2023-05-09T17:35:00.292Z,100927.55
2023-05-09T17:37:08.099Z,100930.91
2023-05-09T17:39:15.915Z,100934.73
2023-05-09T17:41:24.198Z,100935.56
2023-05-09T17:43:32.417Z,100938.48
2023-05-09T17:45:40.891Z,100935.72
2023-05-09T17:47:48.663Z,100935.19
2023-05-09T17:49:56.086Z,100936.33
2023-05-09T17:52:05.454Z,100938.26
2023-05-09T17:54:13.984Z,100936.54
2023-05-09T17:56:21.537Z,100937.74
2023-05-09T17:58:30.106Z,100938
2023-05-09T18:00:38.754Z,100933.44
2023-05-09T18:02:46.802Z,100941.7
2023-05-09T18:04:55.008Z,100939.49
2023-05-09T18:07:03.468Z,100934.38
2023-05-09T18:09:12.365Z,100934.52
2023-05-09T18:11:23.521Z,100940.25
2023-05-09T18:13:32.050Z,100940.36
2023-05-09T18:15:42.056Z,100943.09
2023-05-09T18:17:50.634Z,100935.45
2023-05-09T18:19:59.375Z,100936.55
2023-05-09T18:22:07.355Z,100938.75
2023-05-09T18:24:18.814Z,100936.7
2023-05-09T18:26:27.135Z,100944.62
2023-05-09T18:28:35.265Z,100937.42
2023-05-09T18:30:43.280Z,100941.4
2023-05-09T18:32:53.859Z,100941.09
2023-05-09T18:35:09.026Z,100941.55
2023-05-09T18:37:17.450Z,100945.77
2023-05-09T18:39:28.116Z,100947.66
2023-05-09T18:41:39.299Z,100945.11
2023-05-09T18:43:47.199Z,100947.67
2023-05-09T18:45:54.942Z,100948.98
2023-05-09T18:48:05.259Z,100946.86
2023-05-09T18:50:13.809Z,100949.7
2023-05-09T18:52:22.344Z,100947.28
2023-05-09T18:54:33.280Z,100949.3
2023-05-09T18:56:41.837Z,100946.38
2023-05-09T18:58:58.420Z,100950.04
2023-05-09T19:01:07.389Z,100947.16
2023-05-09T19:03:17.231Z,100946.91
2023-05-09T19:05:28.830Z,100947.8
2023-05-09T19:07:37.509Z,100946.94
2023-05-09T19:09:47.111Z,100943.93
2023-05-09T19:11:58.540Z,100945.61
2023-05-09T19:14:08.925Z,100945.92
2023-05-09T19:16:24.049Z,100943.31
2023-05-09T19:18:36.181Z,100944.59
2023-05-09T19:20:48.673Z,100940.41
2023-05-09T19:26:02.236Z,100939.63
2023-05-09T19:28:13.630Z,100939.98
2023-05-09T19:30:26.104Z,100940.7
2023-05-09T19:32:37.701Z,100943.52
2023-05-09T19:34:51.135Z,100942.49
2023-05-09T19:37:05.565Z,100941.81
2023-05-09T19:39:22.844Z,100938.69
2023-05-09T19:41:41.121Z,100935.13
2023-05-09T19:43:56.000Z,100929.53
2023-05-09T19:46:09.706Z,100930.68
2023-05-09T19:48:27.118Z,100931.08
2023-05-09T19:50:47.782Z,100932.41
2023-05-09T19:53:03.157Z,100928.12
2023-05-09T19:55:19.814Z,100932.78
2023-05-09T19:57:34.885Z,100933.95
2023-05-09T19:59:43.009Z,100937.18
2023-05-09T20:01:52.608Z,100937.87
2023-05-09T20:04:02.472Z,100933.98
2023-05-09T20:09:15.811Z,100939.69
2023-05-09T20:11:28.290Z,100934.18
2023-05-09T20:13:40.906Z,100930.38
2023-05-09T20:15:53.759Z,100931.91
2023-05-09T20:18:07.231Z,100930.59
2023-05-09T20:20:21.651Z,100926.39
2023-05-09T20:22:32.445Z,100928.45
2023-05-09T20:24:43.913Z,100931.39
2023-05-09T20:26:55.033Z,100927.92
2023-05-09T20:29:07.347Z,100927.37
2023-05-09T20:31:19.177Z,100925.89
2023-05-09T20:33:30.817Z,100924.94
2023-05-09T20:35:43.744Z,100921.66
2023-05-09T20:37:55.812Z,100923.59
2023-05-09T20:40:07.050Z,100925.02
2023-05-09T20:42:18.341Z,100924.16
2023-05-09T20:44:29.393Z,100921.46
2023-05-09T20:46:40.629Z,100926.33
2023-05-09T20:48:51.700Z,100926.84
2023-05-09T20:51:01.745Z,100923.48
2023-05-09T20:53:10.764Z,100924.72
2023-05-09T20:55:17.814Z,100920.3
2023-05-09T20:57:25.393Z,100924.83
2023-05-09T20:59:32.857Z,100923.68
2023-05-09T21:01:41.052Z,100923.28
2023-05-09T21:03:51.091Z,100920.33
2023-05-09T21:05:57.914Z,100923.56
2023-05-09T21:08:05.124Z,100924.42
2023-05-09T21:10:12.718Z,100923.97
2023-05-09T21:12:20.992Z,100921.13
2023-05-09T21:14:29.131Z,100919.95
2023-05-09T21:16:36.010Z,100919.31
2023-05-09T21:18:43.194Z,100915.53
2023-05-09T21:20:50.374Z,100916.78
2023-05-09T21:22:59.108Z,100916.98
2023-05-09T21:25:06.195Z,100920.02
2023-05-09T21:27:12.710Z,100914.94
2023-05-09T21:29:19.570Z,100918.31
2023-05-09T21:31:27.067Z,100917.61
2023-05-09T21:33:33.972Z,100907.74
2023-05-09T21:35:40.977Z,100905.81
2023-05-09T21:37:48.035Z,100912.26
2023-05-09T21:39:55.304Z,100908.3
2023-05-09T21:42:02.826Z,100907.51
2023-05-09T21:44:12.387Z,100905.98
2023-05-09T21:46:20.161Z,100915.92
2023-05-09T21:48:27.083Z,100914.32
2023-05-09T21:50:33.947Z,100916.38
2023-05-09T21:52:41.391Z,100915.61
2023-05-09T21:54:48.471Z,100918.28
2023-05-09T21:56:54.850Z,100917.24
2023-05-09T21:59:01.762Z,100917.05
2023-05-09T22:01:09.230Z,100915.7
2023-05-09T22:03:17.395Z,100920.13
2023-05-09T22:05:25.318Z,100917.19
2023-05-09T22:07:31.972Z,100917.64
2023-05-09T22:09:38.800Z,100914.9
2023-05-09T22:11:45.391Z,100916.54
2023-05-09T22:13:52.908Z,100915.55
2023-05-09T22:15:59.842Z,100917.64
2023-05-09T22:18:07.522Z,100914.69
2023-05-09T22:20:16.870Z,100915.3
2023-05-09T22:22:24.046Z,100911.33
2023-05-09T22:24:30.777Z,100910.22
2023-05-09T22:26:37.728Z,100907.64
2023-05-09T22:28:43.832Z,100905.98
2023-05-09T22:30:50.358Z,100907.53
2023-05-09T22:32:56.435Z,100903.66
2023-05-09T22:35:03.716Z,100900.75
2023-05-09T22:37:10.627Z,100902.2
2023-05-09T22:39:17.459Z,100898.63
2023-05-09T22:41:23.769Z,100899.79
2023-05-09T22:43:39.942Z,100895.53
2023-05-09T22:45:47.337Z,100895.17
2023-05-09T22:47:54.036Z,100900.73
2023-05-09T22:50:00.724Z,100897.47
2023-05-09T22:52:07.750Z,100896.25
2023-05-09T22:54:17.104Z,100894.55
2023-05-09T22:56:24.040Z,100896.56
2023-05-09T22:58:32.400Z,100892.88
2023-05-09T23:00:38.998Z,100889.88
2023-05-09T23:02:46.621Z,100885.63
2023-05-09T23:04:53.870Z,100890.59
2023-05-09T23:07:00.423Z,100886.94
2023-05-09T23:09:06.817Z,100882.02
2023-05-09T23:11:14.295Z,100883.66
2023-05-09T23:13:20.634Z,100881.13
2023-05-09T23:15:28.210Z,100881.11
2023-05-09T23:17:35.316Z,100882.17
2023-05-09T23:19:43.270Z,100883.14
2023-05-09T23:21:50.096Z,100883.13
2023-05-09T23:23:56.966Z,100883.5
2023-05-09T23:26:04.260Z,100881.53
2023-05-09T23:28:11.073Z,100884.3
2023-05-09T23:30:18.028Z,100883.14
2023-05-09T23:32:25.656Z,100880.84
2023-05-09T23:34:31.953Z,100881.13
2023-05-09T23:36:38.717Z,100880.91
2023-05-09T23:38:48.608Z,100879.63
2023-05-09T23:40:55.859Z,100878.4
2023-05-09T23:43:02.761Z,100877.59
2023-05-09T23:45:09.428Z,100878.52
2023-05-09T23:47:16.774Z,100874.66
2023-05-09T23:49:23.829Z,100875.13
2023-05-09T23:51:30.267Z,100873.52
2023-05-09T23:53:37.460Z,100869.94
2023-05-09T23:55:44.596Z,100862.83
2023-05-09T23:57:51.715Z,100863.22
2023-05-09T23:59:58.692Z,100863.46
